Time;durP1;ratioP1;P1;durP2;ratioP2;P2;SDS_P1;SDS_P2;PMS_P1;PMS_P2;Temp;Humidity;BMP_temperature;BMP_pressure;BME280_temperature;BME280_humidity;BME280_pressure;Samples;Min_cycle;Max_cycle;Signal;HPM_P1;HPM_P2
2023/07/31 00:00:08;;;;;;;1.27;0.82;;;25.10;50.70;;;;;;5077621;28;20025;-70
2023/07/31 00:02:34;;;;;;;1.38;0.70;;;25.10;50.70;;;;;;5080166;28;20107;-69
2023/07/31 00:05:01;;;;;;;1.33;0.80;;;25.10;50.70;;;;;;5077752;28;20108;-69
2023/07/31 00:07:26;;;;;;;1.15;0.80;;;25.10;50.80;;;;;;5059567;28;20028;-70
2023/07/31 00:09:53;;;;;;;1.80;0.90;;;25.10;50.80;;;;;;5075379;28;20077;-70
2023/07/31 00:12:19;;;;;;;1.23;0.80;;;25.10;50.80;;;;;;5077181;28;20514;-70
2023/07/31 00:14:45;;;;;;;0.80;0.70;;;25.10;50.80;;;;;;5078513;28;20053;-69
2023/07/31 00:17:11;;;;;;;1.75;1.10;;;25.10;50.80;;;;;;5076679;28;20024;-69
2023/07/31 00:19:37;;;;;;;1.80;0.95;;;25.10;50.80;;;;;;5077227;28;20702;-69
2023/07/31 00:22:03;;;;;;;1.10;0.80;;;25.10;50.80;;;;;;5069285;28;20083;-68
2023/07/31 00:24:28;;;;;;;1.27;0.77;;;25.10;50.80;;;;;;5078963;28;20463;-69
2023/07/31 00:26:54;;;;;;;1.77;0.80;;;25.10;50.90;;;;;;5076585;28;20082;-69
2023/07/31 00:29:20;;;;;;;1.25;0.80;;;25.10;50.90;;;;;;5078804;28;20027;-71
2023/07/31 00:31:45;;;;;;;1.73;0.80;;;25.10;50.90;;;;;;5077285;28;20135;-69
2023/07/31 00:34:11;;;;;;;1.20;0.80;;;25.10;50.90;;;;;;5077634;28;20032;-69
2023/07/31 00:36:36;;;;;;;1.00;0.80;;;25.00;50.80;;;;;;5077691;28;20475;-69
2023/07/31 00:39:02;;;;;;;1.35;0.90;;;25.00;50.90;;;;;;5076450;28;20035;-70
2023/07/31 00:41:28;;;;;;;1.00;0.70;;;25.00;50.90;;;;;;5076911;28;20468;-70
2023/07/31 00:43:53;;;;;;;1.48;0.90;;;25.00;50.90;;;;;;5079498;28;20028;-70
2023/07/31 00:46:20;;;;;;;1.10;0.80;;;25.00;50.90;;;;;;5078193;28;20462;-70
2023/07/31 00:48:46;;;;;;;1.48;0.98;;;25.00;50.90;;;;;;5077896;28;20033;-69
2023/07/31 00:51:11;;;;;;;1.40;0.68;;;25.00;50.90;;;;;;5077044;28;20486;-70
2023/07/31 00:53:37;;;;;;;0.90;0.70;;;25.00;50.90;;;;;;5077886;28;20032;-70
2023/07/31 00:56:04;;;;;;;1.10;0.88;;;25.00;51.00;;;;;;5077378;28;20177;-71
2023/07/31 00:58:30;;;;;;;1.27;0.90;;;25.00;51.00;;;;;;5078300;28;20020;-69
2023/07/31 01:00:55;;;;;;;1.48;0.90;;;25.00;51.00;;;;;;5079897;28;20472;-71
2023/07/31 01:03:21;;;;;;;1.10;0.70;;;25.00;51.00;;;;;;5078339;28;20028;-69
2023/07/31 01:06:08;;;;;;;0.60;0.60;;;25.00;51.00;;;;;;5076570;28;20020;-69
2023/07/31 01:08:54;;;;;;;1.17;0.88;;;25.00;51.00;;;;;;5075935;28;20020;-63
2023/07/31 01:11:25;;;;;;;0.95;0.70;;;25.00;51.00;;;;;;5077532;28;20020;-65
2023/07/31 01:13:51;;;;;;;1.40;0.80;;;25.00;51.00;;;;;;5078226;28;20587;-63
2023/07/31 01:16:17;;;;;;;1.35;0.80;;;24.90;51.00;;;;;;5078774;28;20123;-64
2023/07/31 01:18:42;;;;;;;1.27;0.80;;;24.90;51.00;;;;;;5077690;28;20031;-62
2023/07/31 01:21:25;;;;;;;1.00;0.75;;;24.90;51.00;;;;;;5080565;28;20031;-66
2023/07/31 01:24:29;;;;;;;0.95;0.80;;;24.90;51.00;;;;;;5082068;28;20017;-64
2023/07/31 01:27:08;;;;;;;1.35;0.80;;;24.90;51.00;;;;;;5079786;28;20042;-64
2023/07/31 01:29:42;;;;;;;0.60;0.60;;;24.90;51.10;;;;;;5079183;28;20111;-69
2023/07/31 01:32:10;;;;;;;1.42;0.88;;;24.90;51.10;;;;;;5081472;28;20035;-69
2023/07/31 01:34:37;;;;;;;1.05;0.70;;;24.90;51.10;;;;;;5081620;28;20028;-68
2023/07/31 01:37:03;;;;;;;1.05;0.70;;;24.90;51.10;;;;;;5079072;28;20036;-69
2023/07/31 01:39:28;;;;;;;1.10;0.80;;;24.90;51.10;;;;;;5081364;28;20032;-63
2023/07/31 01:41:54;;;;;;;1.23;0.90;;;24.90;51.10;;;;;;5079773;28;20459;-63
2023/07/31 01:44:20;;;;;;;1.23;0.70;;;24.90;51.10;;;;;;5081027;28;20056;-63
2023/07/31 01:46:46;;;;;;;1.00;0.68;;;24.90;51.10;;;;;;5083128;28;20047;-64
2023/07/31 01:49:11;;;;;;;0.82;0.68;;;24.80;51.10;;;;;;5081103;28;20463;-64
2023/07/31 01:51:37;;;;;;;1.25;0.75;;;24.80;51.10;;;;;;5080295;28;20419;-64
2023/07/31 01:54:03;;;;;;;0.90;0.70;;;24.80;51.10;;;;;;5075820;28;20093;-63
2023/07/31 01:56:28;;;;;;;1.30;0.82;;;24.80;51.10;;;;;;5081087;28;20020;-64
2023/07/31 01:58:54;;;;;;;0.98;0.70;;;24.80;51.10;;;;;;5080126;28;20033;-65
2023/07/31 02:01:19;;;;;;;1.25;0.73;;;24.80;51.10;;;;;;5071809;28;20418;-63
2023/07/31 02:03:45;;;;;;;1.17;0.80;;;24.80;51.10;;;;;;5081112;28;20044;-63
2023/07/31 02:06:11;;;;;;;1.25;0.80;;;24.80;51.20;;;;;;5080889;28;20503;-64
2023/07/31 02:08:36;;;;;;;0.88;0.77;;;24.80;51.20;;;;;;5079408;28;20041;-65
2023/07/31 02:11:02;;;;;;;1.20;0.80;;;24.80;51.20;;;;;;5079119;28;20038;-68
2023/07/31 02:13:28;;;;;;;1.20;0.80;;;24.80;51.20;;;;;;5079050;28;20103;-63
2023/07/31 02:15:54;;;;;;;0.98;0.68;;;24.80;51.20;;;;;;5079776;28;20094;-64
2023/07/31 02:18:19;;;;;;;0.70;0.70;;;24.80;51.20;;;;;;5079923;28;20387;-68
2023/07/31 02:20:50;;;;;;;1.25;0.80;;;24.80;51.20;;;;;;5079486;28;20047;-69
2023/07/31 02:23:17;;;;;;;1.40;0.90;;;24.80;51.20;;;;;;5079037;28;20020;-70
2023/07/31 02:25:43;;;;;;;1.00;0.80;;;24.80;51.20;;;;;;5082374;28;20025;-70
2023/07/31 02:28:08;;;;;;;0.70;0.70;;;24.80;51.20;;;;;;5080197;28;20029;-70
2023/07/31 02:30:34;;;;;;;1.00;0.70;;;24.70;51.20;;;;;;5079618;28;20028;-70
2023/07/31 02:32:59;;;;;;;1.30;0.88;;;24.80;51.30;;;;;;5076819;28;20429;-71
2023/07/31 02:35:25;;;;;;;0.90;0.70;;;24.80;51.30;;;;;;5077588;28;20040;-70
2023/07/31 02:37:50;;;;;;;0.70;0.70;;;24.80;51.30;;;;;;5078177;28;20560;-69
2023/07/31 02:40:16;;;;;;;1.00;0.80;;;24.80;51.30;;;;;;5078483;28;20031;-69
2023/07/31 02:42:41;;;;;;;0.70;0.70;;;24.70;51.20;;;;;;5077165;28;20476;-70
2023/07/31 02:45:08;;;;;;;1.08;0.70;;;24.70;51.20;;;;;;5080370;28;20024;-68
2023/07/31 02:47:33;;;;;;;0.90;0.70;;;24.80;51.30;;;;;;5080065;28;20027;-68
2023/07/31 02:49:59;;;;;;;0.68;0.68;;;24.70;51.30;;;;;;5078549;28;20487;-69
2023/07/31 02:52:25;;;;;;;0.95;0.80;;;24.70;51.30;;;;;;5077126;28;20111;-67
2023/07/31 02:54:51;;;;;;;0.70;0.70;;;24.70;51.30;;;;;;5078646;28;20115;-69
2023/07/31 02:57:16;;;;;;;1.17;0.73;;;24.70;51.30;;;;;;5062119;28;20034;-69
2023/07/31 02:59:42;;;;;;;1.17;0.80;;;24.70;51.30;;;;;;5079620;28;20028;-70
2023/07/31 03:02:07;;;;;;;0.70;0.70;;;24.70;51.40;;;;;;5075949;28;20491;-70
2023/07/31 03:04:33;;;;;;;0.73;0.70;;;24.70;51.30;;;;;;5079505;28;20021;-70
2023/07/31 03:06:59;;;;;;;0.77;0.70;;;24.70;51.40;;;;;;5078677;28;20553;-70
2023/07/31 03:09:24;;;;;;;0.60;0.60;;;24.70;51.40;;;;;;5079064;28;20685;-68
2023/07/31 03:11:50;;;;;;;0.88;0.68;;;24.70;51.30;;;;;;5077279;28;20089;-69
2023/07/31 03:14:15;;;;;;;1.70;0.70;;;24.70;51.40;;;;;;5078284;28;20036;-69
2023/07/31 03:16:41;;;;;;;1.27;0.80;;;24.70;51.40;;;;;;5077618;28;20364;-69
2023/07/31 03:19:06;;;;;;;0.95;0.80;;;24.70;51.40;;;;;;5078593;28;20031;-68
2023/07/31 03:21:32;;;;;;;0.77;0.63;;;24.70;51.40;;;;;;5064892;28;20024;-69
2023/07/31 03:23:58;;;;;;;0.80;0.70;;;24.60;51.30;;;;;;5078914;28;20514;-69
2023/07/31 03:26:23;;;;;;;0.88;0.65;;;24.60;51.30;;;;;;5077761;28;20020;-69
2023/07/31 03:28:49;;;;;;;1.10;0.70;;;24.60;51.30;;;;;;5076659;28;20170;-63
2023/07/31 03:31:15;;;;;;;0.75;0.70;;;24.60;51.40;;;;;;5078995;28;20024;-63
2023/07/31 03:33:40;;;;;;;0.73;0.70;;;24.60;51.40;;;;;;5079260;28;20098;-65
2023/07/31 03:36:06;;;;;;;0.80;0.70;;;24.60;51.40;;;;;;5079047;28;20032;-65
2023/07/31 03:38:32;;;;;;;0.73;0.60;;;24.60;51.40;;;;;;5078849;28;20039;-65
2023/07/31 03:40:58;;;;;;;0.98;0.70;;;24.60;51.40;;;;;;5076407;28;20480;-65
2023/07/31 03:43:24;;;;;;;1.10;0.80;;;24.60;51.90;;;;;;5077665;28;20021;-66
2023/07/31 03:45:50;;;;;;;0.90;0.70;;;24.60;51.40;;;;;;5078450;28;20410;-64
2023/07/31 03:48:16;;;;;;;0.80;0.70;;;24.60;51.40;;;;;;5080305;28;20024;-63
2023/07/31 03:50:42;;;;;;;0.93;0.75;;;24.60;51.50;;;;;;5077313;28;20035;-69
2023/07/31 03:53:08;;;;;;;1.05;0.70;;;24.60;51.50;;;;;;5077463;28;20074;-68
2023/07/31 03:55:33;;;;;;;0.60;0.60;;;24.60;51.50;;;;;;5077827;28;20444;-68
2023/07/31 03:58:00;;;;;;;0.70;0.70;;;24.60;51.50;;;;;;5077901;28;20028;-68
2023/07/31 04:00:27;;;;;;;0.98;0.82;;;24.60;52.00;;;;;;5078175;28;20020;-70
2023/07/31 04:02:52;;;;;;;0.80;0.60;;;24.60;51.50;;;;;;5078173;28;20024;-70
2023/07/31 04:05:18;;;;;;;0.60;0.60;;;24.50;51.40;;;;;;5078283;28;20035;-70
2023/07/31 04:07:44;;;;;;;0.70;0.60;;;24.50;51.40;;;;;;5078842;28;20384;-71
2023/07/31 04:10:09;;;;;;;0.68;0.55;;;24.50;51.40;;;;;;5078486;28;20028;-69
2023/07/31 04:12:35;;;;;;;0.70;0.70;;;24.50;51.50;;;;;;5077335;28;20020;-68
2023/07/31 04:15:01;;;;;;;0.65;0.60;;;24.50;51.50;;;;;;5064440;28;20031;-69
2023/07/31 04:17:26;;;;;;;0.70;0.63;;;24.50;51.50;;;;;;5077608;28;20105;-69
2023/07/31 04:19:52;;;;;;;0.63;0.50;;;24.50;51.50;;;;;;5075976;28;20361;-69
2023/07/31 04:22:17;;;;;;;0.70;0.60;;;24.50;51.50;;;;;;5078275;28;20024;-70
2023/07/31 04:24:43;;;;;;;0.70;0.70;;;24.50;51.50;;;;;;5075505;28;20032;-69
2023/07/31 04:27:09;;;;;;;0.60;0.60;;;24.50;51.50;;;;;;5076988;28;20033;-69
2023/07/31 04:29:34;;;;;;;1.40;0.80;;;24.50;51.50;;;;;;5077767;28;20111;-71
2023/07/31 04:32:00;;;;;;;0.88;0.80;;;24.50;51.50;;;;;;5077896;28;20091;-70
2023/07/31 04:34:26;;;;;;;0.70;0.70;;;24.50;51.50;;;;;;5078949;28;20033;-68
2023/07/31 04:36:51;;;;;;;0.63;0.60;;;24.50;51.60;;;;;;5076676;28;20108;-70
2023/07/31 04:39:17;;;;;;;0.77;0.63;;;24.50;51.50;;;;;;5079352;28;20130;-64
2023/07/31 04:41:42;;;;;;;0.73;0.70;;;24.50;51.60;;;;;;5079534;28;20037;-63
2023/07/31 04:44:08;;;;;;;0.70;0.60;;;24.50;51.60;;;;;;5076669;28;20119;-63
2023/07/31 04:46:33;;;;;;;0.60;0.60;;;24.50;51.60;;;;;;5077441;28;20102;-65
2023/07/31 04:49:00;;;;;;;0.60;0.60;;;24.50;51.60;;;;;;5077574;28;20047;-63
2023/07/31 04:51:25;;;;;;;1.05;0.60;;;24.50;51.60;;;;;;5078968;28;20484;-64
2023/07/31 04:53:51;;;;;;;0.95;0.68;;;24.40;51.60;;;;;;5075970;28;20044;-63
2023/07/31 04:56:16;;;;;;;1.13;0.75;;;24.40;51.50;;;;;;5081286;28;20036;-64
2023/07/31 04:58:42;;;;;;;1.00;0.60;;;24.50;51.80;;;;;;5080387;28;20487;-70
2023/07/31 05:01:08;;;;;;;0.60;0.60;;;24.40;51.60;;;;;;5083491;28;20028;-63
2023/07/31 05:03:33;;;;;;;0.70;0.70;;;24.40;51.60;;;;;;5080628;28;20099;-65
2023/07/31 05:05:59;;;;;;;0.88;0.70;;;24.40;51.60;;;;;;5081649;28;20446;-64
2023/07/31 05:08:24;;;;;;;0.60;0.60;;;24.40;51.60;;;;;;5071960;28;20040;-63
2023/07/31 05:10:50;;;;;;;0.90;0.70;;;24.40;51.60;;;;;;5080666;28;20032;-68
2023/07/31 05:13:16;;;;;;;0.65;0.60;;;24.40;51.60;;;;;;5062564;28;20103;-68
2023/07/31 05:15:41;;;;;;;0.82;0.65;;;24.40;51.60;;;;;;5082781;28;20028;-68
2023/07/31 05:18:07;;;;;;;0.95;0.68;;;24.40;51.60;;;;;;5066444;28;20025;-68
2023/07/31 05:20:32;;;;;;;1.20;0.70;;;24.40;51.60;;;;;;5080559;28;20036;-68
2023/07/31 05:22:58;;;;;;;0.80;0.63;;;24.40;51.60;;;;;;5082491;28;20384;-68
2023/07/31 05:25:24;;;;;;;0.63;0.60;;;24.30;51.60;;;;;;5081645;28;20148;-67
2023/07/31 05:27:49;;;;;;;1.08;0.80;;;24.40;51.60;;;;;;5078350;28;20020;-67
2023/07/31 05:30:15;;;;;;;0.75;0.60;;;24.40;51.60;;;;;;5079582;28;20173;-68
2023/07/31 05:32:41;;;;;;;0.60;0.60;;;24.40;51.60;;;;;;5082459;28;20032;-69
2023/07/31 05:35:06;;;;;;;0.85;0.60;;;24.40;51.60;;;;;;5081326;28;20367;-68
2023/07/31 05:37:32;;;;;;;0.77;0.70;;;24.30;51.50;;;;;;5083208;28;20085;-68
2023/07/31 05:39:58;;;;;;;0.80;0.70;;;24.40;51.60;;;;;;5080664;28;20057;-68
2023/07/31 05:42:23;;;;;;;1.05;0.60;;;24.30;51.50;;;;;;5080671;28;20031;-68
2023/07/31 05:44:49;;;;;;;0.93;0.70;;;24.40;51.60;;;;;;5080618;28;20099;-67
2023/07/31 05:47:15;;;;;;;0.93;0.65;;;24.30;51.50;;;;;;5082217;28;20322;-67
2023/07/31 05:49:40;;;;;;;1.10;0.70;;;24.30;51.60;;;;;;5081467;28;20161;-69
2023/07/31 05:52:06;;;;;;;0.70;0.70;;;24.30;51.50;;;;;;5079478;28;20033;-68
2023/07/31 05:54:33;;;;;;;1.30;0.80;;;24.30;51.50;;;;;;5079449;28;20044;-68
2023/07/31 05:56:58;;;;;;;1.05;0.70;;;24.30;51.50;;;;;;5080918;28;20029;-68
2023/07/31 05:59:24;;;;;;;0.70;0.70;;;24.30;51.60;;;;;;5080779;28;20024;-68
2023/07/31 06:01:50;;;;;;;0.93;0.70;;;24.30;51.60;;;;;;5080347;28;20028;-67
2023/07/31 06:04:15;;;;;;;1.17;0.70;;;24.40;51.70;;;;;;5081090;28;20139;-68
2023/07/31 06:06:41;;;;;;;0.75;0.63;;;24.30;51.60;;;;;;5080329;28;20035;-68
2023/07/31 06:09:06;;;;;;;0.70;0.60;;;24.40;51.70;;;;;;5080528;28;20024;-67
2023/07/31 06:11:33;;;;;;;0.98;0.70;;;24.30;51.60;;;;;;5079840;28;20498;-68
2023/07/31 06:13:59;;;;;;;1.10;0.80;;;24.40;51.60;;;;;;5079905;28;20024;-68
2023/07/31 06:16:26;;;;;;;0.80;0.80;;;24.40;51.60;;;;;;5080264;28;20021;-68
2023/07/31 06:18:52;;;;;;;0.73;0.68;;;24.40;51.50;;;;;;5079880;28;20023;-67
2023/07/31 06:21:18;;;;;;;1.40;0.80;;;24.40;51.40;;;;;;5080026;28;20028;-62
2023/07/31 06:23:43;;;;;;;1.50;0.80;;;24.40;51.40;;;;;;5078862;28;20044;-63
2023/07/31 06:26:09;;;;;;;1.27;0.80;;;24.50;51.50;;;;;;5079710;28;20442;-63
2023/07/31 06:28:35;;;;;;;1.15;0.70;;;24.50;51.40;;;;;;5078850;28;20259;-63
2023/07/31 06:31:01;;;;;;;1.13;0.70;;;24.50;51.40;;;;;;5079540;28;20415;-66
2023/07/31 06:33:27;;;;;;;1.17;0.80;;;24.50;51.40;;;;;;5081357;28;20085;-64
2023/07/31 06:35:53;;;;;;;0.95;0.80;;;24.50;51.30;;;;;;5079719;28;20025;-64
2023/07/31 06:38:26;;;;;;;1.27;0.90;;;24.50;51.30;;;;;;5080821;28;20020;-63
2023/07/31 06:40:51;;;;;;;1.20;0.88;;;24.60;51.40;;;;;;5076884;28;20131;-64
2023/07/31 06:43:17;;;;;;;1.20;0.80;;;24.60;51.30;;;;;;5078865;28;20029;-65
2023/07/31 06:45:43;;;;;;;1.33;0.80;;;24.60;51.30;;;;;;5078853;28;20028;-63
2023/07/31 06:48:09;;;;;;;1.10;0.80;;;24.60;51.20;;;;;;5079401;28;20086;-63
2023/07/31 06:50:34;;;;;;;1.38;0.90;;;24.60;51.10;;;;;;5078967;28;20043;-65
2023/07/31 06:53:00;;;;;;;0.95;0.80;;;24.70;51.10;;;;;;5065533;28;20027;-63
2023/07/31 06:55:26;;;;;;;1.42;0.80;;;24.70;51.10;;;;;;5079622;28;20467;-62
2023/07/31 06:57:54;;;;;;;1.30;0.90;;;24.70;51.00;;;;;;5078667;28;20889;-64
2023/07/31 07:00:20;;;;;;;1.83;0.80;;;24.70;51.00;;;;;;5080218;28;20115;-68
2023/07/31 07:02:49;;;;;;;1.73;0.88;;;24.70;51.10;;;;;;5078340;28;20016;-68
2023/07/31 07:05:16;;;;;;;1.55;0.80;;;24.70;51.00;;;;;;5079053;28;20294;-68
2023/07/31 07:07:42;;;;;;;1.30;0.90;;;24.80;51.00;;;;;;5080767;28;20024;-67
2023/07/31 07:10:09;;;;;;;1.23;0.90;;;24.80;51.00;;;;;;5078591;28;20070;-69
2023/07/31 07:12:35;;;;;;;1.42;0.80;;;24.80;51.00;;;;;;5079010;28;20020;-67
2023/07/31 07:15:01;;;;;;;1.77;0.80;;;24.80;51.00;;;;;;5078251;28;20024;-68
2023/07/31 07:17:32;;;;;;;1.23;0.75;;;24.80;51.00;;;;;;5079327;28;20043;-68
2023/07/31 07:19:58;;;;;;;1.08;0.80;;;24.80;50.90;;;;;;5078909;28;20020;-67
2023/07/31 07:22:24;;;;;;;1.10;0.90;;;24.80;50.90;;;;;;5077302;28;20035;-68
2023/07/31 07:24:49;;;;;;;1.63;0.80;;;24.90;50.90;;;;;;5079131;28;20032;-68
2023/07/31 07:27:15;;;;;;;1.10;0.80;;;24.80;50.90;;;;;;5080257;28;20028;-68
2023/07/31 07:29:41;;;;;;;0.80;0.70;;;24.90;50.90;;;;;;5076893;28;20033;-62
2023/07/31 07:32:06;;;;;;;1.38;0.90;;;24.90;50.90;;;;;;5078104;28;20062;-62
2023/07/31 07:34:32;;;;;;;1.50;0.80;;;24.90;50.80;;;;;;5078256;28;20138;-62
2023/07/31 07:36:58;;;;;;;1.00;0.80;;;25.00;50.80;;;;;;5077781;28;20036;-62
2023/07/31 07:39:23;;;;;;;1.05;0.80;;;24.90;50.70;;;;;;5077517;28;20028;-61
2023/07/31 07:41:49;;;;;;;0.98;0.80;;;24.90;50.70;;;;;;5078479;28;20052;-62
2023/07/31 07:44:15;;;;;;;0.93;0.80;;;25.00;50.80;;;;;;5077692;28;20386;-62
2023/07/31 07:46:41;;;;;;;0.70;0.70;;;25.00;50.70;;;;;;5080874;28;20101;-62
2023/07/31 07:49:06;;;;;;;0.70;0.70;;;25.00;50.70;;;;;;5078314;28;20028;-63
2023/07/31 07:51:32;;;;;;;1.10;0.73;;;25.00;50.70;;;;;;5079864;28;20526;-63
2023/07/31 07:53:58;;;;;;;1.42;0.90;;;25.00;50.70;;;;;;5079880;28;20484;-64
2023/07/31 07:56:26;;;;;;;1.38;0.77;;;25.00;51.20;;;;;;5077690;28;20029;-64
2023/07/31 07:58:52;;;;;;;1.10;0.80;;;25.00;50.60;;;;;;5077140;28;20476;-63
2023/07/31 08:01:18;;;;;;;0.80;0.70;;;25.10;50.60;;;;;;5080411;28;20531;-64
2023/07/31 08:03:43;;;;;;;2.33;0.80;;;25.10;50.60;;;;;;5079853;28;20104;-65
2023/07/31 08:06:09;;;;;;;1.15;0.70;;;25.10;50.70;;;;;;5079373;28;20085;-63
2023/07/31 08:08:35;;;;;;;1.27;0.80;;;25.10;50.60;;;;;;5077861;28;20024;-62
2023/07/31 08:11:01;;;;;;;1.30;0.90;;;25.10;50.60;;;;;;5082223;28;20502;-62
2023/07/31 08:13:27;;;;;;;1.40;0.90;;;25.10;50.50;;;;;;5061914;28;20111;-63
2023/07/31 08:15:53;;;;;;;1.10;0.80;;;25.10;50.50;;;;;;5077675;28;20032;-63
2023/07/31 08:18:18;;;;;;;1.10;0.90;;;25.10;50.40;;;;;;5077995;28;20028;-65
2023/07/31 08:20:44;;;;;;;2.35;0.80;;;25.10;50.40;;;;;;5060435;28;20012;-62
2023/07/31 08:23:10;;;;;;;1.23;0.80;;;25.10;51.00;;;;;;5076748;28;20574;-62
2023/07/31 08:25:37;;;;;;;1.45;0.70;;;25.10;50.50;;;;;;5079263;28;20020;-63
2023/07/31 08:28:03;;;;;;;1.70;0.60;;;25.10;50.40;;;;;;5079027;28;20034;-63
2023/07/31 08:30:29;;;;;;;1.17;0.80;;;25.10;50.50;;;;;;5080115;28;20036;-62
2023/07/31 08:32:54;;;;;;;1.17;0.85;;;25.20;50.50;;;;;;5081397;28;20467;-63
2023/07/31 08:35:20;;;;;;;1.10;0.80;;;25.20;50.40;;;;;;5064589;28;20035;-62
2023/07/31 08:37:45;;;;;;;1.00;0.80;;;25.20;50.40;;;;;;5080483;28;20070;-61
2023/07/31 08:40:11;;;;;;;1.20;0.80;;;25.20;50.40;;;;;;5081221;28;20035;-68
2023/07/31 08:42:48;;;;;;;2.00;1.17;;;25.30;50.50;;;;;;5081465;28;20047;-68
2023/07/31 08:45:19;;;;;;;1.40;0.77;;;25.30;50.40;;;;;;5080547;28;20111;-68
2023/07/31 08:47:50;;;;;;;1.45;0.70;;;25.30;50.40;;;;;;5082538;28;20032;-68
2023/07/31 08:50:18;;;;;;;1.52;0.93;;;25.30;50.40;;;;;;5080894;28;20537;-69
2023/07/31 08:52:45;;;;;;;1.20;0.90;;;25.30;50.40;;;;;;5081621;28;20097;-69
2023/07/31 08:55:11;;;;;;;0.95;0.70;;;25.30;50.30;;;;;;5080991;28;20127;-68
2023/07/31 08:57:38;;;;;;;1.13;0.80;;;25.30;50.30;;;;;;5083167;28;20555;-68
2023/07/31 09:00:09;;;;;;;1.85;0.90;;;25.40;50.30;;;;;;5081190;28;20048;-68
2023/07/31 09:03:08;;;;;;;0.85;0.70;;;25.40;50.30;;;;;;5081307;28;20105;-68
2023/07/31 09:05:36;;;;;;;1.17;0.88;;;25.30;50.30;;;;;;5072435;28;20066;-68
2023/07/31 09:08:04;;;;;;;1.40;0.77;;;25.40;50.80;;;;;;5081957;28;20115;-68
2023/07/31 09:10:29;;;;;;;1.45;0.90;;;25.40;50.30;;;;;;5082418;28;20032;-68
2023/07/31 09:12:56;;;;;;;1.15;0.80;;;25.40;50.30;;;;;;5082819;28;20036;-68
2023/07/31 09:15:23;;;;;;;1.98;0.80;;;25.40;50.30;;;;;;5080098;28;20029;-68
2023/07/31 09:18:00;;;;;;;1.13;0.80;;;25.40;50.70;;;;;;5081974;28;20028;-68
2023/07/31 09:20:25;;;;;;;1.40;0.82;;;25.40;50.20;;;;;;5081429;28;20016;-65
2023/07/31 09:22:52;;;;;;;1.55;0.80;;;25.40;50.20;;;;;;5081904;28;20017;-63
2023/07/31 09:25:19;;;;;;;1.48;0.80;;;25.50;50.30;;;;;;5080906;28;20039;-63
2023/07/31 09:27:48;;;;;;;0.95;0.80;;;25.40;50.10;;;;;;5083506;28;20025;-64
2023/07/31 09:30:15;;;;;;;1.38;0.88;;;25.40;50.20;;;;;;5083706;28;20097;-65
2023/07/31 09:32:40;;;;;;;1.23;0.80;;;25.40;50.10;;;;;;5083017;28;20082;-63
2023/07/31 09:35:42;;;;;;;1.17;0.80;;;25.40;50.10;;;;;;5080497;28;20028;-64
2023/07/31 09:38:13;;;;;;;1.88;0.82;;;25.50;50.20;;;;;;4972798;28;20042;-65
2023/07/31 09:40:40;;;;;;;1.23;0.80;;;25.50;50.20;;;;;;5064675;28;20488;-64
2023/07/31 09:43:10;;;;;;;1.48;0.98;;;25.50;50.20;;;;;;5080989;28;20034;-63
2023/07/31 09:45:39;;;;;;;;;;;25.50;50.20;;;;;;5061402;28;20391;-63
2023/07/31 09:48:15;;;;;;;1.00;0.80;;;25.50;50.30;;;;;;5080461;28;20228;-64
2023/07/31 09:50:44;;;;;;;1.25;0.80;;;25.50;50.20;;;;;;5081131;28;20454;-67
2023/07/31 09:53:10;;;;;;;1.77;0.90;;;25.60;50.10;;;;;;5080656;28;20032;-69
2023/07/31 09:55:37;;;;;;;1.13;0.80;;;25.50;50.50;;;;;;5063504;28;20135;-68
2023/07/31 09:58:08;;;;;;;1.30;0.88;;;25.50;50.10;;;;;;5082419;28;20296;-68
2023/07/31 10:00:35;;;;;;;0.90;0.77;;;25.60;50.20;;;;;;5078849;28;20436;-67
2023/07/31 10:03:07;;;;;;;1.33;0.85;;;25.60;50.30;;;;;;5081017;28;20016;-68
2023/07/31 10:05:39;;;;;;;1.55;0.90;;;25.60;50.20;;;;;;5078036;28;20495;-69
2023/07/31 10:08:07;;;;;;;1.50;0.90;;;25.60;50.20;;;;;;5080697;28;20024;-68
2023/07/31 10:10:35;;;;;;;1.73;0.98;;;25.60;50.30;;;;;;5063314;28;20017;-69
2023/07/31 10:13:02;;;;;;;1.43;0.93;;;25.60;50.20;;;;;;5079434;28;20028;-68
2023/07/31 10:15:29;;;;;;;1.30;0.90;;;25.60;50.20;;;;;;5077622;28;20308;-68
2023/07/31 10:17:56;;;;;;;1.50;1.00;;;25.60;50.20;;;;;;5062920;28;20039;-69
2023/07/31 10:20:22;;;;;;;1.50;0.80;;;25.70;50.20;;;;;;5076297;28;20042;-68
2023/07/31 10:22:48;;;;;;;1.63;0.90;;;25.70;50.10;;;;;;5070073;28;20028;-68
2023/07/31 10:25:15;;;;;;;1.75;0.80;;;25.70;50.10;;;;;;5079463;28;20031;-68
2023/07/31 10:27:41;;;;;;;1.77;1.15;;;25.70;50.00;;;;;;5061039;28;20035;-68
2023/07/31 10:30:14;;;;;;;4.40;1.15;;;25.70;50.00;;;;;;5080058;28;20107;-69
2023/07/31 10:32:43;;;;;;;1.63;0.82;;;25.70;50.10;;;;;;5078707;28;20059;-69
2023/07/31 10:35:09;;;;;;;1.05;0.77;;;25.70;50.00;;;;;;5078436;28;20153;-68
2023/07/31 10:37:41;;;;;;;1.60;0.90;;;25.70;50.00;;;;;;5079778;28;20487;-70
2023/07/31 10:40:24;;;;;;;1.08;0.80;;;25.70;50.10;;;;;;5079887;28;20060;-69
2023/07/31 10:42:54;;;;;;;1.02;0.80;;;25.70;50.10;;;;;;5079213;28;20043;-69
2023/07/31 10:45:37;;;;;;;1.80;0.90;;;25.80;50.20;;;;;;5077687;28;20072;-69
2023/07/31 10:48:06;;;;;;;1.65;0.88;;;25.80;50.20;;;;;;5079856;28;20024;-69
2023/07/31 10:50:37;;;;;;;0.98;0.77;;;25.80;50.30;;;;;;5078384;28;20032;-69
2023/07/31 10:53:03;;;;;;;1.42;1.00;;;25.80;50.00;;;;;;5079646;28;20488;-69
2023/07/31 10:55:42;;;;;;;1.80;0.90;;;25.80;50.00;;;;;;5079039;28;20021;-68
2023/07/31 10:58:13;;;;;;;1.60;1.05;;;25.80;50.00;;;;;;5080949;28;20052;-67
2023/07/31 11:00:41;;;;;;;1.63;0.90;;;25.80;50.00;;;;;;5078397;28;20455;-70
2023/07/31 11:03:11;;;;;;;1.42;0.90;;;25.80;50.00;;;;;;5078448;28;20024;-70
2023/07/31 11:05:43;;;;;;;1.23;0.88;;;25.80;50.00;;;;;;5077810;28;20025;-70
2023/07/31 11:08:28;;;;;;;1.35;1.00;;;25.80;50.00;;;;;;5078597;28;20113;-69
2023/07/31 11:11:03;;;;;;;0.80;0.70;;;25.80;50.00;;;;;;5079632;28;20040;-69
2023/07/31 11:13:44;;;;;;;1.25;0.90;;;25.80;49.90;;;;;;5059345;28;20115;-70
2023/07/31 11:16:12;;;;;;;1.48;0.80;;;25.80;50.00;;;;;;5064558;28;20476;-70
2023/07/31 11:18:43;;;;;;;1.88;0.82;;;25.80;50.00;;;;;;5079373;28;20024;-70
2023/07/31 11:21:12;;;;;;;1.20;0.80;;;25.80;50.10;;;;;;5078877;28;20457;-70
2023/07/31 11:23:39;;;;;;;1.30;0.93;;;25.80;50.00;;;;;;5059244;28;20028;-69
2023/07/31 11:26:06;;;;;;;1.85;1.00;;;25.90;49.80;;;;;;5078104;28;20127;-70
2023/07/31 11:28:33;;;;;;;2.03;1.00;;;25.90;49.50;;;;;;5078664;28;20071;-69
2023/07/31 11:31:00;;;;;;;1.80;1.00;;;25.90;49.10;;;;;;5075916;28;20025;-70
2023/07/31 11:33:26;;;;;;;2.70;1.35;;;25.90;48.30;;;;;;5076632;28;20040;-70
2023/07/31 11:35:51;;;;;;;2.30;1.33;;;25.90;47.80;;;;;;5079292;28;20069;-69
2023/07/31 11:38:26;;;;;;;3.08;1.42;;;25.90;47.60;;;;;;5078924;28;20044;-69
2023/07/31 11:41:10;;;;;;;2.38;1.50;;;25.90;47.10;;;;;;5060830;28;20405;-69
2023/07/31 11:43:38;;;;;;;2.65;1.38;;;25.90;46.50;;;;;;5078311;28;20586;-70
2023/07/31 11:46:05;;;;;;;2.40;1.20;;;25.90;46.50;;;;;;5076908;28;20040;-70
2023/07/31 11:48:36;;;;;;;2.30;1.30;;;25.90;46.50;;;;;;5078945;28;20050;-69
2023/07/31 11:51:08;;;;;;;2.30;1.42;;;25.90;45.80;;;;;;5078944;28;20157;-69
2023/07/31 11:53:41;;;;;;;3.15;1.30;;;25.90;45.70;;;;;;5061263;28;20039;-69
2023/07/31 11:56:11;;;;;;;2.83;1.30;;;25.90;45.30;;;;;;5076814;28;20094;-70
2023/07/31 11:58:38;;;;;;;4.25;1.50;;;25.90;45.70;;;;;;5078489;28;20012;-68
2023/07/31 12:01:04;;;;;;;2.42;1.38;;;25.90;45.10;;;;;;5061347;28;20023;-64
2023/07/31 12:03:32;;;;;;;3.00;1.50;;;25.90;45.50;;;;;;5078295;28;20024;-65
2023/07/31 12:05:59;;;;;;;3.63;1.60;;;25.90;44.90;;;;;;5077718;28;20032;-63
2023/07/31 12:08:25;;;;;;;3.83;1.50;;;25.90;44.60;;;;;;5078970;28;20479;-64
2023/07/31 12:10:52;;;;;;;3.58;1.55;;;25.90;44.40;;;;;;5078710;28;20029;-68
2023/07/31 12:13:26;;;;;;;4.35;1.73;;;25.90;44.50;;;;;;5076295;28;20471;-69
2023/07/31 12:15:57;;;;;;;2.90;1.60;;;25.90;44.50;;;;;;5076696;28;20056;-70
2023/07/31 12:18:24;;;;;;;3.10;1.35;;;26.00;44.60;;;;;;5078235;28;20021;-70
2023/07/31 12:20:55;;;;;;;2.38;1.55;;;25.90;45.20;;;;;;5079082;28;20025;-69
2023/07/31 12:23:27;;;;;;;2.78;1.67;;;25.90;44.60;;;;;;5079590;28;20139;-70
2023/07/31 12:26:08;;;;;;;3.38;1.58;;;25.90;44.60;;;;;;5078277;28;20479;-69
2023/07/31 12:28:47;;;;;;;2.58;1.60;;;25.90;44.70;;;;;;5076228;28;20024;-67
2023/07/31 12:31:17;;;;;;;2.72;1.40;;;25.90;44.60;;;;;;5075938;28;20036;-70
2023/07/31 12:33:42;;;;;;;;;;;25.90;45.00;;;;;;5079084;28;20376;-67
2023/07/31 12:36:11;;;;;;;2.58;1.50;;;25.90;45.50;;;;;;5076956;28;19919;-67
2023/07/31 12:38:37;;;;;;;;;;;25.90;45.40;;;;;;5079231;28;20025;-68
2023/07/31 12:41:03;;;;;;;3.10;1.48;;;25.90;45.50;;;;;;5078016;28;19932;-67
2023/07/31 12:43:29;;;;;;;2.38;1.38;;;26.00;45.50;;;;;;5078407;28;20460;-67
2023/07/31 12:45:56;;;;;;;3.60;1.40;;;26.00;45.60;;;;;;5079130;28;20044;-68
2023/07/31 12:48:22;;;;;;;3.45;1.45;;;26.00;45.80;;;;;;5067181;28;20032;-68